createdAt,value
2022-09-16T00:01:19.746Z,101332.78
2022-09-16T00:05:25.187Z,101336.25
2022-09-16T00:07:27.474Z,101340.56
2022-09-16T00:09:29.755Z,101337.97
2022-09-16T00:11:34.780Z,101335.38
2022-09-16T00:13:36.953Z,101328.44
2022-09-16T00:17:46.605Z,101323.19
2022-09-16T00:19:50.828Z,101329.25
2022-09-16T00:23:57.557Z,101337.84
2022-09-16T00:28:04.568Z,101335.22
2022-09-16T00:32:14.152Z,101336.00
2022-09-16T00:34:17.536Z,101329.97
2022-09-16T00:38:25.682Z,101332.47
2022-09-16T00:40:29.154Z,101328.16
2022-09-16T00:46:48.375Z,101333.34
2022-09-16T00:48:50.824Z,101329.91
2022-09-16T00:50:55.968Z,101330.75
2022-09-16T00:55:06.864Z,101339.38
2022-09-16T00:57:11.511Z,101346.31
2022-09-16T00:59:16.713Z,101347.19
2022-09-16T01:01:19.529Z,101350.53
2022-09-16T01:03:22.439Z,101347.94
2022-09-16T01:05:26.945Z,101351.41
2022-09-16T01:07:31.951Z,101352.25
2022-09-16T01:09:34.812Z,101352.19
2022-09-16T01:11:36.923Z,101344.38
2022-09-16T01:13:41.330Z,101348.72
2022-09-16T01:17:55.810Z,101344.31
2022-09-16T01:20:04.624Z,101342.59
2022-09-16T01:22:16.147Z,101347.78
2022-09-16T01:24:24.129Z,101349.50
2022-09-16T01:26:37.535Z,101351.19
2022-09-16T01:28:43.724Z,101349.41
2022-09-16T01:30:51.593Z,101351.19
2022-09-16T01:33:00.420Z,101351.97
2022-09-16T01:35:10.990Z,101341.56
2022-09-16T01:39:25.389Z,101346.66
2022-09-16T01:41:44.953Z,101346.53
2022-09-16T01:43:51.062Z,101345.56
2022-09-16T01:45:59.262Z,101343.94
2022-09-16T01:48:01.750Z,101341.25
2022-09-16T01:50:09.467Z,101335.22
2022-09-16T01:52:16.212Z,101342.09
2022-09-16T01:54:32.719Z,101338.59
2022-09-16T01:58:44.982Z,101340.28
2022-09-16T02:00:50.085Z,101340.25
2022-09-16T02:05:03.804Z,101338.47
2022-09-16T02:07:10.280Z,101336.75
2022-09-16T02:09:20.106Z,101339.25
2022-09-16T02:11:22.909Z,101345.28
2022-09-16T02:13:29.425Z,101341.72
2022-09-16T02:15:34.828Z,101356.41
2022-09-16T02:17:43.752Z,101359.81
2022-09-16T02:19:49.840Z,101359.81
2022-09-16T02:21:56.310Z,101355.41
2022-09-16T02:24:02.648Z,101353.63
2022-09-16T02:28:16.884Z,101352.81
2022-09-16T02:30:20.634Z,101352.69
2022-09-16T02:32:26.978Z,101343.25
2022-09-16T02:34:32.871Z,101353.59
2022-09-16T02:38:44.708Z,101355.28
2022-09-16T02:42:50.608Z,101357.81
2022-09-16T02:44:53.324Z,101364.69
2022-09-16T02:47:02.140Z,101361.13
2022-09-16T02:49:11.061Z,101355.94
2022-09-16T02:53:33.119Z,101364.53
2022-09-16T02:57:44.283Z,101367.91
2022-09-16T03:01:52.832Z,101355.84
2022-09-16T03:03:57.646Z,101350.72
2022-09-16T03:08:15.443Z,101355.00
2022-09-16T03:12:29.136Z,101350.66
2022-09-16T03:14:40.178Z,101350.59
2022-09-16T03:16:51.665Z,101354.91
2022-09-16T03:19:04.463Z,101352.31
2022-09-16T03:21:16.900Z,101350.66
2022-09-16T03:25:26.529Z,101357.63
2022-09-16T03:27:32.252Z,101348.03
2022-09-16T03:29:45.723Z,101352.38
2022-09-16T03:31:58.263Z,101350.63
2022-09-16T03:38:15.142Z,101357.69
2022-09-16T03:42:20.912Z,101363.69
2022-09-16T03:44:34.918Z,101359.38
2022-09-16T03:50:44.427Z,101367.88
2022-09-16T03:52:48.087Z,101363.44
2022-09-16T03:54:50.278Z,101365.13
2022-09-16T03:56:53.930Z,101361.63
2022-09-16T04:01:02.427Z,101359.25
2022-09-16T04:05:11.080Z,101363.53
2022-09-16T04:07:14.297Z,101372.13
2022-09-16T04:09:16.779Z,101377.25
2022-09-16T04:11:19.768Z,101372.09
2022-09-16T04:13:22.142Z,101369.41
2022-09-16T04:15:24.483Z,101363.34
2022-09-16T04:21:32.344Z,101372.69
2022-09-16T04:23:36.845Z,101369.25
2022-09-16T04:25:42.123Z,101366.66
2022-09-16T04:27:45.142Z,101366.66
2022-09-16T04:31:51.796Z,101371.81
2022-09-16T04:38:06.205Z,101385.50
2022-09-16T04:40:08.943Z,101377.75
2022-09-16T04:44:15.491Z,101376.91
2022-09-16T04:46:17.587Z,101374.28
2022-09-16T04:48:21.194Z,101368.25
2022-09-16T04:52:26.284Z,101359.63
2022-09-16T04:58:38.298Z,101366.38
2022-09-16T05:02:49.802Z,101374.97
2022-09-16T05:04:53.448Z,101385.34
2022-09-16T05:06:55.750Z,101387.06
2022-09-16T05:09:01.050Z,101380.13
2022-09-16T05:11:08.924Z,101385.16
2022-09-16T05:15:17.852Z,101390.31
2022-09-16T05:17:46.458Z,101381.78
2022-09-16T05:19:42.882Z,101384.22
2022-09-16T05:23:49.066Z,101377.22
2022-09-16T05:25:51.542Z,101379.78
2022-09-16T05:27:56.482Z,101382.34
2022-09-16T05:32:03.721Z,101378.00
2022-09-16T05:34:14.430Z,101394.31
2022-09-16T05:36:18.864Z,101396.88
2022-09-16T05:40:26.418Z,101403.75
2022-09-16T05:44:32.452Z,101404.47
2022-09-16T05:48:38.624Z,101404.53
2022-09-16T05:50:41.215Z,101412.22
2022-09-16T05:52:45.049Z,101412.22
2022-09-16T05:54:48.344Z,101422.56
2022-09-16T05:56:52.588Z,101416.47
2022-09-16T06:03:07.061Z,101414.69
2022-09-16T06:09:20.994Z,101413.72
2022-09-16T06:17:32.541Z,101433.56
2022-09-16T06:19:35.000Z,101432.63
2022-09-16T06:23:42.037Z,101434.41
2022-09-16T06:25:44.277Z,101431.00
2022-09-16T06:29:53.837Z,101436.25
2022-09-16T06:31:58.978Z,101433.72
2022-09-16T06:34:02.837Z,101433.69
2022-09-16T06:40:11.887Z,101443.09
2022-09-16T06:42:13.600Z,101450.06
2022-09-16T06:44:15.801Z,101453.59
2022-09-16T06:46:26.752Z,101452.75
2022-09-16T06:48:39.649Z,101454.44
2022-09-16T06:50:43.628Z,101457.84
2022-09-16T06:52:45.288Z,101454.50
2022-09-16T06:54:48.195Z,101454.50
2022-09-16T06:56:50.534Z,101453.75
2022-09-16T07:02:07.241Z,101454.59
2022-09-16T07:04:13.703Z,101461.66
2022-09-16T07:06:17.406Z,101461.69
2022-09-16T07:08:19.530Z,101463.38
2022-09-16T07:12:26.349Z,101472.00
2022-09-16T07:14:29.376Z,101472.91
2022-09-16T07:16:31.604Z,101475.63
2022-09-16T07:18:34.549Z,101477.34
2022-09-16T07:20:36.820Z,101475.66
2022-09-16T07:24:41.626Z,101474.00
2022-09-16T07:26:44.810Z,101470.66
2022-09-16T07:28:49.033Z,101471.50
2022-09-16T07:30:51.356Z,101467.13
2022-09-16T07:32:53.747Z,101473.22
2022-09-16T07:34:56.048Z,101471.56
2022-09-16T07:37:00.108Z,101475.97
2022-09-16T07:43:11.359Z,101492.47
2022-09-16T07:45:13.134Z,101489.00
2022-09-16T07:47:17.800Z,101485.53
2022-09-16T07:49:23.668Z,101494.34
2022-09-16T07:51:26.927Z,101496.84
2022-09-16T07:53:30.047Z,101500.38
2022-09-16T07:55:32.304Z,101498.78
2022-09-16T07:59:35.264Z,101501.53
2022-09-16T08:05:42.609Z,101504.31
2022-09-16T08:07:44.747Z,101498.34
2022-09-16T08:09:50.966Z,101504.47
2022-09-16T08:11:55.171Z,101505.28
2022-09-16T08:14:00.239Z,101506.16
2022-09-16T08:16:07.734Z,101502.78
2022-09-16T08:18:10.128Z,101505.34
2022-09-16T08:22:14.357Z,101510.34
2022-09-16T08:24:17.176Z,101511.38
2022-09-16T08:26:19.809Z,101519.25
2022-09-16T08:28:22.065Z,101518.44
2022-09-16T08:32:29.574Z,101528.94
2022-09-16T08:36:45.609Z,101530.84
2022-09-16T08:38:49.635Z,101530.91
2022-09-16T08:40:55.972Z,101534.50
2022-09-16T08:49:20.674Z,101538.25
2022-09-16T08:51:23.547Z,101538.25
2022-09-16T08:53:28.911Z,101538.41
2022-09-16T08:55:35.806Z,101546.16
2022-09-16T08:59:48.214Z,101543.63
2022-09-16T09:01:53.798Z,101548.06
2022-09-16T09:03:56.678Z,101548.94
2022-09-16T09:10:20.790Z,101551.72
2022-09-16T09:12:27.164Z,101555.22
2022-09-16T09:16:53.535Z,101558.66
2022-09-16T09:18:58.981Z,101571.75
2022-09-16T09:21:07.855Z,101570.03
2022-09-16T09:23:16.589Z,101565.81
2022-09-16T09:25:23.209Z,101564.84
2022-09-16T09:27:29.723Z,101564.09
2022-09-16T09:29:38.314Z,101564.00
2022-09-16T09:36:03.101Z,101572.75
2022-09-16T09:38:09.507Z,101572.00
2022-09-16T09:40:15.101Z,101565.06
2022-09-16T09:42:23.743Z,101572.00
2022-09-16T09:44:32.359Z,101578.94
2022-09-16T09:46:41.493Z,101584.16
2022-09-16T09:48:51.002Z,101572.88
2022-09-16T09:50:54.370Z,101577.34
2022-09-16T09:53:12.616Z,101574.78
2022-09-16T09:55:20.096Z,101574.63
2022-09-16T09:57:26.536Z,101572.19
2022-09-16T09:59:31.852Z,101568.81
2022-09-16T10:01:34.014Z,101566.31
2022-09-16T10:03:38.447Z,101570.66
2022-09-16T10:05:40.987Z,101568.22
2022-09-16T10:07:43.358Z,101568.38
2022-09-16T10:09:52.592Z,101567.50
2022-09-16T10:11:55.923Z,101566.81
2022-09-16T10:14:01.011Z,101558.31
2022-09-16T10:16:14.986Z,101554.94
2022-09-16T10:18:27.027Z,101553.25
2022-09-16T10:20:38.903Z,101546.38
2022-09-16T10:22:41.017Z,101547.38
2022-09-16T10:26:44.289Z,101548.38
2022-09-16T10:29:00.357Z,101558.06
2022-09-16T10:31:03.382Z,101558.06
2022-09-16T10:35:21.745Z,101551.22
2022-09-16T10:39:32.553Z,101552.13
2022-09-16T10:41:43.676Z,101547.78
2022-09-16T10:43:49.854Z,101555.59
2022-09-16T10:45:56.485Z,101557.34
2022-09-16T10:50:07.784Z,101554.69
2022-09-16T10:52:17.738Z,101552.09
2022-09-16T10:56:29.854Z,101550.31
2022-09-16T10:58:32.298Z,101548.56
2022-09-16T11:00:51.227Z,101552.03
2022-09-16T11:03:07.271Z,101553.00
2022-09-16T11:05:17.080Z,101552.16
2022-09-16T11:07:29.818Z,101539.13
2022-09-16T11:09:32.422Z,101549.63
2022-09-16T11:11:43.801Z,101552.25
2022-09-16T11:13:49.293Z,101553.16
2022-09-16T11:16:01.883Z,101558.31
2022-09-16T11:18:08.808Z,101557.41
2022-09-16T11:20:17.680Z,101555.66
2022-09-16T11:22:28.887Z,101564.38
2022-09-16T11:24:37.090Z,101567.84
2022-09-16T11:26:43.355Z,101560.97
2022-09-16T11:31:07.678Z,101556.66
2022-09-16T11:33:20.641Z,101549.75
2022-09-16T11:39:47.211Z,101551.44
2022-09-16T11:41:55.908Z,101546.22
2022-09-16T11:43:59.080Z,101545.34
2022-09-16T11:46:04.614Z,101542.72
2022-09-16T11:48:18.018Z,101540.09
2022-09-16T11:52:30.398Z,101549.59
2022-09-16T11:54:38.646Z,101548.69
2022-09-16T11:56:44.954Z,101546.06
2022-09-16T11:58:57.633Z,101538.25
2022-09-16T12:01:06.865Z,101541.72
2022-09-16T12:03:24.323Z,101539.13
2022-09-16T12:05:28.225Z,101551.31
2022-09-16T12:07:37.594Z,101562.66
2022-09-16T12:09:47.676Z,101565.28
2022-09-16T12:11:55.845Z,101563.53
2022-09-16T12:14:06.440Z,101556.53
2022-09-16T12:16:14.233Z,101560.91
2022-09-16T12:20:44.183Z,101559.03
2022-09-16T12:22:55.105Z,101557.31
2022-09-16T12:25:08.267Z,101561.66
2022-09-16T12:27:28.094Z,101575.66
2022-09-16T12:29:38.688Z,101570.47
2022-09-16T12:34:03.191Z,101577.44
2022-09-16T12:36:08.608Z,101564.31
2022-09-16T12:38:13.984Z,101569.56
2022-09-16T12:40:26.504Z,101567.84
2022-09-16T12:42:32.924Z,101575.69
2022-09-16T12:44:38.285Z,101567.00
2022-09-16T12:46:43.275Z,101573.06
2022-09-16T12:50:59.509Z,101552.16
2022-09-16T12:53:12.230Z,101569.59
2022-09-16T12:55:16.529Z,101569.59
2022-09-16T12:57:24.552Z,101567.84
2022-09-16T12:59:32.551Z,101557.41
2022-09-16T13:03:43.880Z,101568.75
2022-09-16T13:05:50.540Z,101571.44
2022-09-16T13:07:56.111Z,101561.00
2022-09-16T13:10:02.362Z,101561.00
2022-09-16T13:12:35.298Z,101562.72
2022-09-16T13:14:34.372Z,101555.72
2022-09-16T13:16:37.609Z,101560.88
2022-09-16T13:18:43.123Z,101556.47
2022-09-16T13:20:50.908Z,101558.19
2022-09-16T13:22:56.204Z,101555.50
2022-09-16T13:25:06.963Z,101557.22
2022-09-16T13:27:15.249Z,101560.56
2022-09-16T13:29:23.371Z,101566.66
2022-09-16T13:33:32.653Z,101558.88
2022-09-16T13:35:37.826Z,101558.91
2022-09-16T13:37:40.773Z,101551.00
2022-09-16T13:41:46.675Z,101558.72
2022-09-16T13:43:51.606Z,101554.28
2022-09-16T13:46:11.533Z,101555.97
2022-09-16T13:48:18.827Z,101552.56
2022-09-16T13:50:25.876Z,101548.25
2022-09-16T13:52:30.934Z,101558.78
2022-09-16T13:55:06.304Z,101558.84
2022-09-16T13:56:50.479Z,101558.97
2022-09-16T13:58:56.166Z,101559.81
2022-09-16T14:01:04.236Z,101565.97
2022-09-16T14:05:20.265Z,101557.19
2022-09-16T14:07:32.065Z,101555.47
2022-09-16T14:11:50.084Z,101564.09
2022-09-16T14:14:05.575Z,101561.38
2022-09-16T14:16:16.169Z,101566.53
2022-09-16T14:22:34.326Z,101571.31
2022-09-16T14:24:39.038Z,101565.06
2022-09-16T14:26:50.533Z,101562.34
2022-09-16T14:29:02.399Z,101560.41
2022-09-16T14:31:10.009Z,101563.00
2022-09-16T14:33:13.610Z,101568.09
2022-09-16T14:35:17.725Z,101562.03
2022-09-16T14:39:25.898Z,101559.94
2022-09-16T14:41:34.102Z,101557.16
2022-09-16T14:45:47.431Z,101554.06
2022-09-16T14:47:53.248Z,101559.19
2022-09-16T14:50:05.566Z,101551.97
2022-09-16T14:52:17.029Z,101554.97
2022-09-16T14:54:21.949Z,101554.66
2022-09-16T14:56:25.220Z,101558.41
2022-09-16T14:58:29.720Z,101557.09
2022-09-16T15:01:06.527Z,101562.66
2022-09-16T15:03:20.495Z,101561.16
2022-09-16T15:05:34.846Z,101570.09
2022-09-16T15:07:50.866Z,101555.47
2022-09-16T15:10:51.499Z,101561.81
2022-09-16T15:13:09.651Z,101566.88
2022-09-16T15:15:19.806Z,101567.53
2022-09-16T15:17:27.104Z,101565.69
2022-09-16T15:19:37.403Z,101569.16
2022-09-16T15:21:39.339Z,101581.25
2022-09-16T15:23:45.359Z,101566.28
2022-09-16T15:25:57.113Z,101570.75
2022-09-16T15:28:17.014Z,101575.38
2022-09-16T15:30:34.577Z,101568.59
2022-09-16T15:32:44.559Z,101570.38
2022-09-16T15:34:46.790Z,101576.28
2022-09-16T15:36:51.051Z,101579.81
2022-09-16T15:38:57.714Z,101571.09
2022-09-16T15:41:05.674Z,101574.47
2022-09-16T15:43:07.225Z,101581.38
2022-09-16T15:45:19.982Z,101583.09
2022-09-16T15:47:27.260Z,101585.69
2022-09-16T15:49:36.521Z,101590.94
2022-09-16T15:51:55.006Z,101587.50
2022-09-16T15:54:05.977Z,101593.56
2022-09-16T15:56:28.420Z,101597.16
2022-09-16T15:58:32.819Z,101591.94
2022-09-16T16:01:13.642Z,101591.84
2022-09-16T16:03:20.605Z,101595.34
2022-09-16T16:05:25.764Z,101592.91
2022-09-16T16:07:47.442Z,101606.97
2022-09-16T16:09:50.168Z,101590.50
2022-09-16T16:12:01.195Z,101606.31
2022-09-16T16:14:03.099Z,101605.53
2022-09-16T16:16:06.155Z,101610.75
2022-09-16T16:18:10.866Z,101606.47
2022-09-16T16:20:14.895Z,101607.41
2022-09-16T16:22:17.651Z,101605.66
2022-09-16T16:24:22.345Z,101613.59
2022-09-16T16:26:24.690Z,101611.84
2022-09-16T16:28:27.069Z,101609.28
2022-09-16T16:30:41.889Z,101608.47
2022-09-16T16:32:44.602Z,101620.69
2022-09-16T16:34:50.375Z,101614.69
2022-09-16T16:36:52.991Z,101612.16
2022-09-16T16:38:54.828Z,101626.97
2022-09-16T16:40:56.442Z,101628.72
2022-09-16T16:42:58.114Z,101621.78
2022-09-16T16:44:59.856Z,101628.81
2022-09-16T16:47:01.803Z,101625.34
2022-09-16T16:49:04.963Z,101619.25
2022-09-16T16:51:10.285Z,101627.13
2022-09-16T16:53:12.073Z,101628.88
2022-09-16T16:55:13.799Z,101628.88
2022-09-16T16:57:15.455Z,101622.75
2022-09-16T16:59:18.286Z,101632.34
2022-09-16T17:01:20.792Z,101634.06
2022-09-16T17:03:22.801Z,101641.91
2022-09-16T17:05:24.531Z,101638.38
2022-09-16T17:07:27.718Z,101639.25
2022-09-16T17:09:29.782Z,101645.31
2022-09-16T17:11:31.906Z,101646.16
2022-09-16T17:13:34.245Z,101646.13
2022-09-16T17:15:36.047Z,101653.91
2022-09-16T17:17:37.881Z,101647.75
2022-09-16T17:19:39.520Z,101659.91
2022-09-16T17:21:41.292Z,101654.59
2022-09-16T17:23:43.488Z,101651.09
2022-09-16T17:25:50.569Z,101664.97
2022-09-16T17:27:52.220Z,101664.09
2022-09-16T17:29:53.995Z,101666.66
2022-09-16T17:31:57.202Z,101659.72
2022-09-16T17:34:05.519Z,101669.25
2022-09-16T17:36:08.969Z,101669.97
2022-09-16T17:38:10.973Z,101670.06
2022-09-16T17:40:12.675Z,101667.31
2022-09-16T17:42:14.551Z,101667.31
2022-09-16T17:44:17.911Z,101671.66
2022-09-16T17:46:20.403Z,101674.22
2022-09-16T17:48:22.342Z,101673.28
2022-09-16T17:50:24.016Z,101680.19
2022-09-16T17:52:26.763Z,101682.72
2022-09-16T17:54:29.141Z,101683.59
2022-09-16T17:56:30.790Z,101689.66
2022-09-16T17:58:33.269Z,101687.75
2022-09-16T18:00:36.785Z,101684.28
2022-09-16T18:02:38.556Z,101692.94
2022-09-16T18:04:43.523Z,101697.16
2022-09-16T18:06:46.876Z,101698.88
2022-09-16T18:08:49.651Z,101709.31
2022-09-16T18:10:54.346Z,101710.94
2022-09-16T18:12:58.227Z,101713.44
2022-09-16T18:14:59.933Z,101716.09
2022-09-16T18:17:01.674Z,101719.47
2022-09-16T18:19:04.092Z,101722.06
2022-09-16T18:21:07.972Z,101732.34
2022-09-16T18:23:09.857Z,101733.13
2022-09-16T18:25:11.589Z,101736.59
2022-09-16T18:27:13.408Z,101727.06
2022-09-16T18:29:15.617Z,101731.47
2022-09-16T18:31:19.699Z,101735.66
2022-09-16T18:33:21.377Z,101739.16
2022-09-16T18:35:22.993Z,101742.53
2022-09-16T18:37:24.831Z,101743.31
2022-09-16T18:39:26.455Z,101751.09
2022-09-16T18:41:35.655Z,101752.75
2022-09-16T18:43:38.915Z,101755.34
2022-09-16T18:45:40.899Z,101753.44
2022-09-16T18:47:42.643Z,101759.50
2022-09-16T18:49:44.377Z,101760.34
2022-09-16T18:51:51.896Z,101764.56
2022-09-16T18:53:57.847Z,101766.34
2022-09-16T18:56:00.001Z,101767.13
2022-09-16T18:58:01.824Z,101765.41
2022-09-16T19:00:05.065Z,101775.78
2022-09-16T19:02:10.344Z,101778.34
2022-09-16T19:04:12.836Z,101772.22
2022-09-16T19:06:14.512Z,101778.22
2022-09-16T19:08:16.130Z,101788.63
2022-09-16T19:10:17.943Z,101785.19
2022-09-16T19:12:19.563Z,101791.22
2022-09-16T19:14:24.724Z,101794.59
2022-09-16T19:16:27.378Z,101794.66
2022-09-16T19:18:29.137Z,101800.69
2022-09-16T19:20:34.080Z,101798.97
2022-09-16T19:22:36.346Z,101797.16
2022-09-16T19:24:38.644Z,101801.44
2022-09-16T19:26:41.477Z,101804.03
2022-09-16T19:28:43.319Z,101812.59
2022-09-16T19:30:45.416Z,101816.03
2022-09-16T19:32:47.115Z,101810.75
2022-09-16T19:34:48.779Z,101821.91
2022-09-16T19:36:56.498Z,101819.28
2022-09-16T19:39:00.157Z,101829.66
2022-09-16T19:41:03.748Z,101824.44
2022-09-16T19:43:05.368Z,101830.50
2022-09-16T19:45:07.837Z,101832.22
2022-09-16T19:47:14.008Z,101828.66
2022-09-16T19:49:19.796Z,101831.19
2022-09-16T19:51:23.883Z,101830.31
2022-09-16T19:53:26.392Z,101833.78
2022-09-16T19:55:28.012Z,101834.59
2022-09-16T19:57:29.652Z,101838.84
2022-09-16T19:59:31.474Z,101839.66
2022-09-16T20:01:34.861Z,101840.53
2022-09-16T20:03:38.066Z,101842.09
2022-09-16T20:05:39.738Z,101841.22
2022-09-16T20:07:41.411Z,101847.09
2022-09-16T20:09:47.462Z,101847.91
2022-09-16T20:11:49.487Z,101849.63
2022-09-16T20:13:56.910Z,101851.31
2022-09-16T20:15:59.018Z,101852.13
2022-09-16T20:18:00.723Z,101855.50
2022-09-16T20:20:02.478Z,101857.22
2022-09-16T20:22:04.235Z,101854.56
2022-09-16T20:24:08.009Z,101859.78
2022-09-16T20:26:12.073Z,101858.00
2022-09-16T20:28:13.703Z,101855.25
2022-09-16T20:30:15.346Z,101862.16
2022-09-16T20:32:16.991Z,101875.09
2022-09-16T20:34:18.594Z,101875.09
2022-09-16T20:36:23.669Z,101871.53
2022-09-16T20:38:25.459Z,101877.66
2022-09-16T20:40:38.209Z,101878.44
2022-09-16T20:42:39.900Z,101884.44
2022-09-16T20:44:42.097Z,101890.47
2022-09-16T20:46:49.167Z,101893.03
2022-09-16T20:48:54.780Z,101894.59
2022-09-16T20:50:56.621Z,101898.06
2022-09-16T20:52:59.854Z,101904.03
2022-09-16T20:55:06.286Z,101901.38
2022-09-16T20:57:08.127Z,101909.94
2022-09-16T20:59:12.595Z,101911.66
2022-09-16T21:01:18.899Z,101911.66
2022-09-16T21:03:20.632Z,101911.66
2022-09-16T21:05:22.575Z,101909.81
2022-09-16T21:07:24.200Z,101905.38
2022-09-16T21:09:26.094Z,101914.84
2022-09-16T21:11:30.046Z,101912.09
2022-09-16T21:13:31.857Z,101913.00
2022-09-16T21:15:33.516Z,101917.38
2022-09-16T21:17:35.419Z,101911.97
2022-09-16T21:19:37.145Z,101913.66
2022-09-16T21:21:41.231Z,101910.25
2022-09-16T21:23:45.645Z,101921.31
2022-09-16T21:25:47.814Z,101922.25
2022-09-16T21:27:49.419Z,101920.38
2022-09-16T21:29:52.342Z,101921.94
2022-09-16T21:31:54.188Z,101923.75
2022-09-16T21:33:57.373Z,101922.94
2022-09-16T21:35:59.746Z,101922.91
2022-09-16T21:38:01.369Z,101926.22
2022-09-16T21:40:04.767Z,101926.25
2022-09-16T21:42:06.567Z,101933.88
2022-09-16T21:44:08.836Z,101932.06
2022-09-16T21:46:12.566Z,101934.53
2022-09-16T21:48:16.447Z,101934.59
2022-09-16T21:50:18.098Z,101937.84
2022-09-16T21:52:20.614Z,101936.16
2022-09-16T21:54:23.111Z,101949.03
2022-09-16T21:56:24.863Z,101944.72
2022-09-16T21:58:26.478Z,101948.13
2022-09-16T22:00:28.135Z,101954.94
2022-09-16T22:02:30.276Z,101953.16
2022-09-16T22:04:31.955Z,101948.72
2022-09-16T22:06:34.428Z,101949.41
2022-09-16T22:08:36.559Z,101945.16
2022-09-16T22:10:39.197Z,101949.41
2022-09-16T22:12:40.878Z,101947.72
2022-09-16T22:14:51.039Z,101948.41
2022-09-16T22:16:53.157Z,101953.66
2022-09-16T22:18:57.233Z,101950.06
2022-09-16T22:21:07.711Z,101943.16
2022-09-16T22:23:09.781Z,101947.31
2022-09-16T22:25:11.901Z,101944.75
2022-09-16T22:27:14.113Z,101949.06
2022-09-16T22:29:16.475Z,101952.50
2022-09-16T22:31:24.172Z,101953.28
2022-09-16T22:33:26.561Z,101958.44
2022-09-16T22:35:29.483Z,101963.47
2022-09-16T22:37:31.829Z,101960.06
2022-09-16T22:39:34.742Z,101969.63
2022-09-16T22:41:37.527Z,101968.78
2022-09-16T22:43:42.855Z,101978.25
2022-09-16T22:45:46.450Z,101978.22
2022-09-16T22:47:48.489Z,101977.19
2022-09-16T22:49:50.789Z,101975.38
2022-09-16T22:51:52.899Z,101982.28
2022-09-16T22:53:55.748Z,101987.50
2022-09-16T22:55:59.409Z,101981.47
2022-09-16T22:58:01.466Z,101984.03
2022-09-16T23:00:04.154Z,101985.75
2022-09-16T23:02:06.511Z,101985.75
2022-09-16T23:04:10.072Z,101993.41
2022-09-16T23:06:14.556Z,101992.56
2022-09-16T23:08:16.605Z,101993.44
2022-09-16T23:10:18.749Z,101997.50
2022-09-16T23:12:20.442Z,102000.97
2022-09-16T23:14:24.994Z,101997.56
2022-09-16T23:16:36.711Z,102001.84
2022-09-16T23:18:39.149Z,101998.19
2022-09-16T23:20:41.141Z,101991.28
2022-09-16T23:22:43.349Z,101999.06
2022-09-16T23:24:45.568Z,101998.34
2022-09-16T23:26:48.341Z,101994.06
2022-09-16T23:28:59.852Z,101992.19
2022-09-16T23:31:11.455Z,101998.16
2022-09-16T23:33:13.997Z,101994.59
2022-09-16T23:35:17.558Z,101987.50
2022-09-16T23:37:19.713Z,101989.84
2022-09-16T23:39:21.711Z,101992.41
2022-09-16T23:41:27.854Z,101992.44
2022-09-16T23:43:30.345Z,101993.16
2022-09-16T23:45:34.924Z,101991.41
2022-09-16T23:47:36.963Z,101991.09
2022-09-16T23:49:38.990Z,101983.34
2022-09-16T23:51:40.967Z,101985.69
2022-09-16T23:53:43.098Z,101991.09
2022-09-16T23:55:45.521Z,101985.72
2022-09-16T23:57:48.020Z,101985.69
2022-09-16T23:59:50.126Z,101989.16
